sensor_id;sensor_type;location;lat;lon;timestamp;P1;durP1;ratioP1;P2;durP2;ratioP2
8636;SDS011;4356;49.068;8.658;2023-01-10T00:02:12;0.70;;;0.70;;
8636;SDS011;4356;49.068;8.658;2023-01-10T00:04:37;0.57;;;0.57;;
8636;SDS011;4356;49.068;8.658;2023-01-10T00:07:03;0.67;;;0.67;;
8636;SDS011;4356;49.068;8.658;2023-01-10T00:09:29;0.60;;;0.60;;
8636;SDS011;4356;49.068;8.658;2023-01-10T00:11:54;0.40;;;0.40;;
8636;SDS011;4356;49.068;8.658;2023-01-10T00:14:38;1.07;;;0.80;;
8636;SDS011;4356;49.068;8.658;2023-01-10T00:17:04;0.70;;;0.60;;
8636;SDS011;4356;49.068;8.658;2023-01-10T00:19:30;1.07;;;1.07;;
8636;SDS011;4356;49.068;8.658;2023-01-10T00:21:56;1.80;;;0.67;;
8636;SDS011;4356;49.068;8.658;2023-01-10T00:24:23;0.63;;;0.63;;
8636;SDS011;4356;49.068;8.658;2023-01-10T00:26:50;1.10;;;1.10;;
8636;SDS011;4356;49.068;8.658;2023-01-10T00:29:16;0.90;;;0.90;;
8636;SDS011;4356;49.068;8.658;2023-01-10T00:31:43;0.73;;;0.73;;
8636;SDS011;4356;49.068;8.658;2023-01-10T00:34:09;0.60;;;0.60;;
8636;SDS011;4356;49.068;8.658;2023-01-10T00:36:34;1.00;;;0.90;;
8636;SDS011;4356;49.068;8.658;2023-01-10T00:39:00;1.70;;;1.23;;
8636;SDS011;4356;49.068;8.658;2023-01-10T00:41:26;1.40;;;1.33;;
8636;SDS011;4356;49.068;8.658;2023-01-10T00:44:10;2.97;;;1.20;;
8636;SDS011;4356;49.068;8.658;2023-01-10T00:46:35;1.20;;;1.10;;
8636;SDS011;4356;49.068;8.658;2023-01-10T03:11:11;0.80;;;0.60;;
8636;SDS011;4356;49.068;8.658;2023-01-10T03:13:40;0.50;;;0.50;;
8636;SDS011;4356;49.068;8.658;2023-01-10T03:16:14;0.70;;;0.70;;
8636;SDS011;4356;49.068;8.658;2023-01-10T03:19:02;0.70;;;0.70;;
8636;SDS011;4356;49.068;8.658;2023-01-10T03:21:35;0.53;;;0.53;;
8636;SDS011;4356;49.068;8.658;2023-01-10T03:24:16;1.53;;;0.77;;
8636;SDS011;4356;49.068;8.658;2023-01-10T03:27:00;0.47;;;0.43;;
8636;SDS011;4356;49.068;8.658;2023-01-10T03:29:43;0.60;;;0.60;;
8636;SDS011;4356;49.068;8.658;2023-01-10T03:32:16;0.53;;;0.53;;
8636;SDS011;4356;49.068;8.658;2023-01-10T03:34:46;0.37;;;0.37;;
8636;SDS011;4356;49.068;8.658;2023-01-10T03:37:15;0.73;;;0.73;;
8636;SDS011;4356;49.068;8.658;2023-01-10T03:42:28;0.43;;;0.43;;
8636;SDS011;4356;49.068;8.658;2023-01-10T03:45:44;1.53;;;0.87;;
8636;SDS011;4356;49.068;8.658;2023-01-10T03:48:16;2.00;;;0.60;;
8636;SDS011;4356;49.068;8.658;2023-01-10T03:50:45;0.80;;;0.80;;
8636;SDS011;4356;49.068;8.658;2023-01-10T03:53:11;0.63;;;0.57;;
8636;SDS011;4356;49.068;8.658;2023-01-10T03:55:39;0.93;;;0.93;;
8636;SDS011;4356;49.068;8.658;2023-01-10T03:58:06;0.53;;;0.53;;
8636;SDS011;4356;49.068;8.658;2023-01-10T04:00:32;0.90;;;0.80;;
8636;SDS011;4356;49.068;8.658;2023-01-10T04:02:58;1.50;;;0.93;;
8636;SDS011;4356;49.068;8.658;2023-01-10T04:05:24;1.00;;;0.87;;
8636;SDS011;4356;49.068;8.658;2023-01-10T04:07:50;1.00;;;0.90;;
8636;SDS011;4356;49.068;8.658;2023-01-10T04:10:16;0.83;;;0.80;;
8636;SDS011;4356;49.068;8.658;2023-01-10T04:12:41;1.47;;;1.13;;
8636;SDS011;4356;49.068;8.658;2023-01-10T04:15:07;0.90;;;0.90;;
8636;SDS011;4356;49.068;8.658;2023-01-10T04:17:34;0.70;;;0.70;;
8636;SDS011;4356;49.068;8.658;2023-01-10T04:19:59;1.43;;;0.87;;
8636;SDS011;4356;49.068;8.658;2023-01-10T04:22:25;1.23;;;0.90;;
8636;SDS011;4356;49.068;8.658;2023-01-10T04:24:51;1.73;;;1.00;;
8636;SDS011;4356;49.068;8.658;2023-01-10T04:27:18;0.83;;;0.83;;
8636;SDS011;4356;49.068;8.658;2023-01-10T04:29:44;2.27;;;1.17;;
8636;SDS011;4356;49.068;8.658;2023-01-10T04:32:09;1.60;;;1.13;;
8636;SDS011;4356;49.068;8.658;2023-01-10T04:34:35;1.77;;;0.87;;
8636;SDS011;4356;49.068;8.658;2023-01-10T04:37:01;2.50;;;1.43;;
8636;SDS011;4356;49.068;8.658;2023-01-10T04:39:26;2.47;;;1.30;;
8636;SDS011;4356;49.068;8.658;2023-01-10T04:41:52;3.53;;;1.50;;
8636;SDS011;4356;49.068;8.658;2023-01-10T04:44:17;1.47;;;1.00;;
8636;SDS011;4356;49.068;8.658;2023-01-10T04:46:43;1.83;;;1.10;;
8636;SDS011;4356;49.068;8.658;2023-01-10T04:49:09;3.73;;;1.57;;
8636;SDS011;4356;49.068;8.658;2023-01-10T04:51:35;1.73;;;1.27;;
8636;SDS011;4356;49.068;8.658;2023-01-10T04:54:01;2.10;;;1.90;;
8636;SDS011;4356;49.068;8.658;2023-01-10T04:56:26;1.73;;;1.30;;
8636;SDS011;4356;49.068;8.658;2023-01-10T04:58:52;2.80;;;1.87;;
8636;SDS011;4356;49.068;8.658;2023-01-10T05:01:19;4.43;;;2.00;;
8636;SDS011;4356;49.068;8.658;2023-01-10T05:03:47;2.13;;;1.83;;
8636;SDS011;4356;49.068;8.658;2023-01-10T05:06:13;6.20;;;1.80;;
8636;SDS011;4356;49.068;8.658;2023-01-10T05:08:39;2.30;;;1.63;;
8636;SDS011;4356;49.068;8.658;2023-01-10T05:11:05;2.20;;;1.70;;
8636;SDS011;4356;49.068;8.658;2023-01-10T05:13:30;1.30;;;1.13;;
8636;SDS011;4356;49.068;8.658;2023-01-10T05:15:56;2.33;;;1.60;;
8636;SDS011;4356;49.068;8.658;2023-01-10T05:18:23;4.43;;;1.73;;
8636;SDS011;4356;49.068;8.658;2023-01-10T05:20:57;2.30;;;1.67;;
8636;SDS011;4356;49.068;8.658;2023-01-10T05:23:24;2.73;;;1.43;;
8636;SDS011;4356;49.068;8.658;2023-01-10T05:25:50;4.90;;;2.17;;
8636;SDS011;4356;49.068;8.658;2023-01-10T05:28:15;3.17;;;1.93;;
8636;SDS011;4356;49.068;8.658;2023-01-10T05:30:41;5.07;;;1.97;;
8636;SDS011;4356;49.068;8.658;2023-01-10T05:33:07;2.27;;;1.70;;
8636;SDS011;4356;49.068;8.658;2023-01-10T05:35:32;1.00;;;0.80;;
8636;SDS011;4356;49.068;8.658;2023-01-10T05:37:58;1.30;;;1.20;;
8636;SDS011;4356;49.068;8.658;2023-01-10T05:40:24;2.40;;;2.20;;
8636;SDS011;4356;49.068;8.658;2023-01-10T05:42:50;4.87;;;2.20;;
8636;SDS011;4356;49.068;8.658;2023-01-10T05:45:16;5.07;;;2.10;;
8636;SDS011;4356;49.068;8.658;2023-01-10T05:47:42;2.83;;;1.77;;
8636;SDS011;4356;49.068;8.658;2023-01-10T05:50:09;4.93;;;1.87;;
8636;SDS011;4356;49.068;8.658;2023-01-10T05:52:35;6.67;;;1.93;;
8636;SDS011;4356;49.068;8.658;2023-01-10T05:55:00;4.17;;;2.00;;
8636;SDS011;4356;49.068;8.658;2023-01-10T05:57:26;3.27;;;1.60;;
8636;SDS011;4356;49.068;8.658;2023-01-10T05:59:51;6.67;;;1.37;;
8636;SDS011;4356;49.068;8.658;2023-01-10T06:02:17;4.70;;;2.67;;
8636;SDS011;4356;49.068;8.658;2023-01-10T06:04:43;4.03;;;1.53;;
8636;SDS011;4356;49.068;8.658;2023-01-10T06:07:08;7.00;;;2.10;;
8636;SDS011;4356;49.068;8.658;2023-01-10T06:09:34;4.37;;;1.33;;
8636;SDS011;4356;49.068;8.658;2023-01-10T06:12:00;5.97;;;2.10;;
8636;SDS011;4356;49.068;8.658;2023-01-10T06:14:26;3.77;;;2.30;;
8636;SDS011;4356;49.068;8.658;2023-01-10T06:16:52;3.30;;;1.90;;
8636;SDS011;4356;49.068;8.658;2023-01-10T06:19:17;3.47;;;1.97;;
8636;SDS011;4356;49.068;8.658;2023-01-10T06:21:43;1.67;;;1.20;;
8636;SDS011;4356;49.068;8.658;2023-01-10T06:24:09;3.10;;;1.70;;
8636;SDS011;4356;49.068;8.658;2023-01-10T06:26:35;1.47;;;1.33;;
8636;SDS011;4356;49.068;8.658;2023-01-10T06:29:00;4.73;;;1.93;;
8636;SDS011;4356;49.068;8.658;2023-01-10T06:31:26;0.73;;;0.73;;
8636;SDS011;4356;49.068;8.658;2023-01-10T06:33:52;3.20;;;1.60;;
8636;SDS011;4356;49.068;8.658;2023-01-10T06:36:21;5.23;;;2.20;;
8636;SDS011;4356;49.068;8.658;2023-01-10T06:38:46;2.57;;;2.00;;
8636;SDS011;4356;49.068;8.658;2023-01-10T06:41:14;8.87;;;2.50;;
8636;SDS011;4356;49.068;8.658;2023-01-10T06:43:43;3.10;;;1.43;;
8636;SDS011;4356;49.068;8.658;2023-01-10T06:46:14;3.20;;;1.87;;
8636;SDS011;4356;49.068;8.658;2023-01-10T06:48:41;3.53;;;1.43;;
8636;SDS011;4356;49.068;8.658;2023-01-10T06:51:09;2.77;;;1.73;;
8636;SDS011;4356;49.068;8.658;2023-01-10T06:53:35;3.87;;;1.77;;
8636;SDS011;4356;49.068;8.658;2023-01-10T06:56:01;4.20;;;2.20;;
8636;SDS011;4356;49.068;8.658;2023-01-10T06:58:27;4.03;;;2.40;;
8636;SDS011;4356;49.068;8.658;2023-01-10T07:00:53;3.10;;;2.03;;
8636;SDS011;4356;49.068;8.658;2023-01-10T07:03:21;3.97;;;2.60;;
8636;SDS011;4356;49.068;8.658;2023-01-10T07:05:46;7.73;;;3.57;;
8636;SDS011;4356;49.068;8.658;2023-01-10T07:08:12;2.10;;;1.83;;
8636;SDS011;4356;49.068;8.658;2023-01-10T07:10:40;3.17;;;2.30;;
8636;SDS011;4356;49.068;8.658;2023-01-10T07:13:06;5.07;;;2.70;;
8636;SDS011;4356;49.068;8.658;2023-01-10T07:15:32;6.70;;;3.17;;
8636;SDS011;4356;49.068;8.658;2023-01-10T07:17:58;3.63;;;2.03;;
8636;SDS011;4356;49.068;8.658;2023-01-10T07:20:24;4.07;;;2.33;;
8636;SDS011;4356;49.068;8.658;2023-01-10T07:22:57;4.70;;;2.13;;
8636;SDS011;4356;49.068;8.658;2023-01-10T07:25:24;4.90;;;2.33;;
8636;SDS011;4356;49.068;8.658;2023-01-10T07:27:51;3.60;;;2.47;;
8636;SDS011;4356;49.068;8.658;2023-01-10T07:30:19;6.27;;;2.50;;
8636;SDS011;4356;49.068;8.658;2023-01-10T07:32:56;2.90;;;2.10;;
8636;SDS011;4356;49.068;8.658;2023-01-10T07:35:23;7.07;;;2.13;;
8636;SDS011;4356;49.068;8.658;2023-01-10T07:37:49;4.47;;;2.20;;
8636;SDS011;4356;49.068;8.658;2023-01-10T07:40:15;5.40;;;2.33;;
8636;SDS011;4356;49.068;8.658;2023-01-10T07:42:41;2.97;;;2.20;;
8636;SDS011;4356;49.068;8.658;2023-01-10T07:45:07;5.13;;;2.10;;
8636;SDS011;4356;49.068;8.658;2023-01-10T07:47:33;6.57;;;2.20;;
8636;SDS011;4356;49.068;8.658;2023-01-10T07:49:58;4.13;;;2.60;;
8636;SDS011;4356;49.068;8.658;2023-01-10T07:52:24;6.50;;;2.27;;
8636;SDS011;4356;49.068;8.658;2023-01-10T07:54:50;3.90;;;2.20;;
8636;SDS011;4356;49.068;8.658;2023-01-10T07:57:17;3.37;;;2.73;;
8636;SDS011;4356;49.068;8.658;2023-01-10T07:59:42;3.83;;;2.20;;
8636;SDS011;4356;49.068;8.658;2023-01-10T08:02:09;3.70;;;2.00;;
8636;SDS011;4356;49.068;8.658;2023-01-10T08:04:35;4.57;;;2.47;;
8636;SDS011;4356;49.068;8.658;2023-01-10T08:07:02;5.63;;;2.50;;
8636;SDS011;4356;49.068;8.658;2023-01-10T08:09:28;2.50;;;2.30;;
8636;SDS011;4356;49.068;8.658;2023-01-10T08:11:54;3.80;;;2.37;;
8636;SDS011;4356;49.068;8.658;2023-01-10T08:14:19;4.07;;;2.27;;
8636;SDS011;4356;49.068;8.658;2023-01-10T08:16:45;3.93;;;2.73;;
8636;SDS011;4356;49.068;8.658;2023-01-10T08:19:11;9.67;;;2.80;;
8636;SDS011;4356;49.068;8.658;2023-01-10T08:21:40;7.57;;;2.50;;
8636;SDS011;4356;49.068;8.658;2023-01-10T08:24:06;5.77;;;3.00;;
8636;SDS011;4356;49.068;8.658;2023-01-10T08:26:32;4.10;;;2.33;;
8636;SDS011;4356;49.068;8.658;2023-01-10T08:28:58;6.87;;;2.33;;
8636;SDS011;4356;49.068;8.658;2023-01-10T08:31:24;5.23;;;2.67;;
8636;SDS011;4356;49.068;8.658;2023-01-10T08:33:50;4.90;;;2.17;;
8636;SDS011;4356;49.068;8.658;2023-01-10T08:36:16;4.43;;;2.30;;
8636;SDS011;4356;49.068;8.658;2023-01-10T08:38:43;5.00;;;2.40;;
8636;SDS011;4356;49.068;8.658;2023-01-10T08:41:10;5.27;;;2.60;;
8636;SDS011;4356;49.068;8.658;2023-01-10T08:43:36;6.27;;;2.60;;
8636;SDS011;4356;49.068;8.658;2023-01-10T08:46:02;7.60;;;2.83;;
8636;SDS011;4356;49.068;8.658;2023-01-10T08:48:28;2.27;;;1.63;;
8636;SDS011;4356;49.068;8.658;2023-01-10T08:50:53;2.10;;;1.67;;
8636;SDS011;4356;49.068;8.658;2023-01-10T08:53:19;2.37;;;2.17;;
8636;SDS011;4356;49.068;8.658;2023-01-10T08:55:45;6.97;;;3.17;;
8636;SDS011;4356;49.068;8.658;2023-01-10T08:58:10;4.43;;;2.30;;
8636;SDS011;4356;49.068;8.658;2023-01-10T09:00:36;7.37;;;2.10;;
8636;SDS011;4356;49.068;8.658;2023-01-10T09:03:03;3.33;;;2.27;;
8636;SDS011;4356;49.068;8.658;2023-01-10T09:05:30;5.20;;;2.23;;
8636;SDS011;4356;49.068;8.658;2023-01-10T09:07:57;5.27;;;2.40;;
8636;SDS011;4356;49.068;8.658;2023-01-10T09:10:24;5.40;;;2.43;;
8636;SDS011;4356;49.068;8.658;2023-01-10T09:12:53;6.73;;;2.30;;
8636;SDS011;4356;49.068;8.658;2023-01-10T09:15:19;5.37;;;2.43;;
8636;SDS011;4356;49.068;8.658;2023-01-10T09:17:48;4.10;;;2.43;;
8636;SDS011;4356;49.068;8.658;2023-01-10T09:20:16;6.53;;;2.73;;
8636;SDS011;4356;49.068;8.658;2023-01-10T09:22:41;5.60;;;2.17;;
8636;SDS011;4356;49.068;8.658;2023-01-10T09:25:07;4.37;;;2.23;;
8636;SDS011;4356;49.068;8.658;2023-01-10T09:27:33;2.77;;;1.93;;
8636;SDS011;4356;49.068;8.658;2023-01-10T09:29:59;5.10;;;2.60;;
8636;SDS011;4356;49.068;8.658;2023-01-10T09:32:25;6.00;;;1.77;;
8636;SDS011;4356;49.068;8.658;2023-01-10T09:34:50;3.27;;;2.10;;
8636;SDS011;4356;49.068;8.658;2023-01-10T09:37:16;3.03;;;2.00;;
8636;SDS011;4356;49.068;8.658;2023-01-10T09:39:42;3.87;;;1.97;;
8636;SDS011;4356;49.068;8.658;2023-01-10T09:47:49;6.90;;;2.27;;
8636;SDS011;4356;49.068;8.658;2023-01-10T09:53:13;3.90;;;1.87;;
8636;SDS011;4356;49.068;8.658;2023-01-10T09:55:48;4.33;;;1.73;;
8636;SDS011;4356;49.068;8.658;2023-01-10T09:58:17;3.27;;;2.00;;
8636;SDS011;4356;49.068;8.658;2023-01-10T10:00:49;3.57;;;2.73;;
8636;SDS011;4356;49.068;8.658;2023-01-10T10:06:10;2.20;;;2.00;;
8636;SDS011;4356;49.068;8.658;2023-01-10T10:08:38;3.60;;;1.77;;
8636;SDS011;4356;49.068;8.658;2023-01-10T10:16:30;2.83;;;1.47;;
8636;SDS011;4356;49.068;8.658;2023-01-10T10:27:27;6.00;;;3.37;;
8636;SDS011;4356;49.068;8.658;2023-01-10T10:35:56;1.03;;;0.83;;
8636;SDS011;4356;49.068;8.658;2023-01-10T10:38:32;3.33;;;1.53;;
8636;SDS011;4356;49.068;8.658;2023-01-10T10:41:01;5.07;;;1.77;;
8636;SDS011;4356;49.068;8.658;2023-01-10T10:43:32;3.20;;;1.83;;
8636;SDS011;4356;49.068;8.658;2023-01-10T10:46:04;3.13;;;1.97;;
8636;SDS011;4356;49.068;8.658;2023-01-10T10:48:35;4.63;;;1.73;;
8636;SDS011;4356;49.068;8.658;2023-01-10T10:53:56;4.00;;;2.07;;
8636;SDS011;4356;49.068;8.658;2023-01-10T10:56:23;3.33;;;1.40;;
8636;SDS011;4356;49.068;8.658;2023-01-10T10:58:51;3.70;;;2.10;;
8636;SDS011;4356;49.068;8.658;2023-01-10T11:01:20;2.80;;;1.43;;
8636;SDS011;4356;49.068;8.658;2023-01-10T11:03:48;3.40;;;2.00;;
8636;SDS011;4356;49.068;8.658;2023-01-10T11:06:19;3.53;;;1.70;;
8636;SDS011;4356;49.068;8.658;2023-01-10T11:08:48;3.77;;;2.13;;
8636;SDS011;4356;49.068;8.658;2023-01-10T11:13:55;1.70;;;1.43;;
8636;SDS011;4356;49.068;8.658;2023-01-10T11:16:35;3.10;;;1.73;;
8636;SDS011;4356;49.068;8.658;2023-01-10T11:19:26;5.93;;;2.27;;
8636;SDS011;4356;49.068;8.658;2023-01-10T11:27:27;1.80;;;1.57;;
8636;SDS011;4356;49.068;8.658;2023-01-10T11:29:56;3.73;;;1.63;;
8636;SDS011;4356;49.068;8.658;2023-01-10T11:34:58;3.30;;;2.10;;
8636;SDS011;4356;49.068;8.658;2023-01-10T11:37:33;2.60;;;1.23;;
8636;SDS011;4356;49.068;8.658;2023-01-10T11:40:15;3.13;;;1.60;;
8636;SDS011;4356;49.068;8.658;2023-01-10T11:42:48;1.87;;;1.70;;
8636;SDS011;4356;49.068;8.658;2023-01-10T11:47:42;2.63;;;1.53;;
8636;SDS011;4356;49.068;8.658;2023-01-10T11:50:33;1.50;;;1.40;;
8636;SDS011;4356;49.068;8.658;2023-01-10T11:53:01;1.97;;;1.60;;
8636;SDS011;4356;49.068;8.658;2023-01-10T11:55:31;5.17;;;2.00;;
8636;SDS011;4356;49.068;8.658;2023-01-10T11:58:09;2.30;;;1.80;;
8636;SDS011;4356;49.068;8.658;2023-01-10T12:00:40;1.80;;;1.70;;
8636;SDS011;4356;49.068;8.658;2023-01-10T12:03:20;2.13;;;1.90;;
8636;SDS011;4356;49.068;8.658;2023-01-10T12:06:15;2.40;;;2.20;;
8636;SDS011;4356;49.068;8.658;2023-01-10T12:08:41;1.23;;;1.13;;
8636;SDS011;4356;49.068;8.658;2023-01-10T12:13:46;1.00;;;0.90;;
8636;SDS011;4356;49.068;8.658;2023-01-10T12:18:54;2.63;;;1.63;;
8636;SDS011;4356;49.068;8.658;2023-01-10T12:21:44;4.77;;;2.07;;
8636;SDS011;4356;49.068;8.658;2023-01-10T12:24:17;6.27;;;1.90;;
8636;SDS011;4356;49.068;8.658;2023-01-10T12:26:49;1.93;;;1.80;;
8636;SDS011;4356;49.068;8.658;2023-01-10T12:29:24;2.93;;;2.13;;
8636;SDS011;4356;49.068;8.658;2023-01-10T12:31:53;1.23;;;0.93;;
8636;SDS011;4356;49.068;8.658;2023-01-10T12:34:23;4.90;;;2.10;;
8636;SDS011;4356;49.068;8.658;2023-01-10T12:39:54;2.57;;;1.90;;
8636;SDS011;4356;49.068;8.658;2023-01-10T12:42:37;1.77;;;1.67;;
8636;SDS011;4356;49.068;8.658;2023-01-10T12:45:49;3.30;;;1.63;;
8636;SDS011;4356;49.068;8.658;2023-01-10T12:48:51;1.73;;;1.40;;
8636;SDS011;4356;49.068;8.658;2023-01-10T12:51:23;4.27;;;1.43;;
8636;SDS011;4356;49.068;8.658;2023-01-10T12:53:56;1.77;;;1.40;;
8636;SDS011;4356;49.068;8.658;2023-01-10T12:56:27;4.20;;;1.80;;
8636;SDS011;4356;49.068;8.658;2023-01-10T12:59:04;3.17;;;1.97;;
8636;SDS011;4356;49.068;8.658;2023-01-10T13:01:41;1.33;;;1.07;;
8636;SDS011;4356;49.068;8.658;2023-01-10T13:04:15;1.17;;;0.97;;
8636;SDS011;4356;49.068;8.658;2023-01-10T13:06:46;5.33;;;2.30;;
8636;SDS011;4356;49.068;8.658;2023-01-10T13:09:21;6.27;;;2.67;;
8636;SDS011;4356;49.068;8.658;2023-01-10T13:11:57;2.00;;;1.33;;
8636;SDS011;4356;49.068;8.658;2023-01-10T13:14:25;5.63;;;2.00;;
8636;SDS011;4356;49.068;8.658;2023-01-10T13:22:48;2.00;;;1.47;;
8636;SDS011;4356;49.068;8.658;2023-01-10T13:25:20;1.73;;;1.27;;
8636;SDS011;4356;49.068;8.658;2023-01-10T13:27:50;4.10;;;1.50;;
8636;SDS011;4356;49.068;8.658;2023-01-10T13:30:33;2.97;;;2.00;;
8636;SDS011;4356;49.068;8.658;2023-01-10T13:33:03;4.67;;;1.57;;
8636;SDS011;4356;49.068;8.658;2023-01-10T13:35:38;4.87;;;1.70;;
8636;SDS011;4356;49.068;8.658;2023-01-10T13:38:06;1.30;;;1.23;;
8636;SDS011;4356;49.068;8.658;2023-01-10T13:40:59;0.90;;;0.90;;
8636;SDS011;4356;49.068;8.658;2023-01-10T13:51:17;3.43;;;1.70;;
8636;SDS011;4356;49.068;8.658;2023-01-10T13:53:51;2.73;;;1.60;;
8636;SDS011;4356;49.068;8.658;2023-01-10T13:56:28;1.70;;;1.07;;
8636;SDS011;4356;49.068;8.658;2023-01-10T13:59:01;2.03;;;1.83;;
8636;SDS011;4356;49.068;8.658;2023-01-10T14:01:49;1.03;;;1.00;;
8636;SDS011;4356;49.068;8.658;2023-01-10T14:04:43;2.00;;;1.70;;
8636;SDS011;4356;49.068;8.658;2023-01-10T14:10:08;1.40;;;1.30;;
8636;SDS011;4356;49.068;8.658;2023-01-10T14:12:50;1.90;;;1.00;;
8636;SDS011;4356;49.068;8.658;2023-01-10T14:15:27;1.50;;;0.97;;
8636;SDS011;4356;49.068;8.658;2023-01-10T14:17:59;2.77;;;1.43;;
8636;SDS011;4356;49.068;8.658;2023-01-10T14:20:41;2.67;;;1.23;;
8636;SDS011;4356;49.068;8.658;2023-01-10T14:25:40;2.27;;;1.70;;
8636;SDS011;4356;49.068;8.658;2023-01-10T14:28:16;1.43;;;1.33;;
8636;SDS011;4356;49.068;8.658;2023-01-10T14:30:52;3.40;;;1.60;;
8636;SDS011;4356;49.068;8.658;2023-01-10T14:33:29;1.40;;;1.30;;
8636;SDS011;4356;49.068;8.658;2023-01-10T14:35:58;2.80;;;1.67;;
8636;SDS011;4356;49.068;8.658;2023-01-10T14:38:28;1.73;;;1.37;;
8636;SDS011;4356;49.068;8.658;2023-01-10T14:40:58;1.30;;;1.03;;
8636;SDS011;4356;49.068;8.658;2023-01-10T14:43:36;2.03;;;1.83;;
8636;SDS011;4356;49.068;8.658;2023-01-10T14:46:14;1.63;;;1.53;;
8636;SDS011;4356;49.068;8.658;2023-01-10T14:48:46;3.27;;;1.87;;
8636;SDS011;4356;49.068;8.658;2023-01-10T14:51:26;3.13;;;1.77;;
8636;SDS011;4356;49.068;8.658;2023-01-10T14:54:08;2.33;;;1.83;;
8636;SDS011;4356;49.068;8.658;2023-01-10T14:56:37;1.80;;;1.57;;
8636;SDS011;4356;49.068;8.658;2023-01-10T15:02:02;2.13;;;1.77;;
8636;SDS011;4356;49.068;8.658;2023-01-10T15:04:44;2.43;;;1.57;;
8636;SDS011;4356;49.068;8.658;2023-01-10T15:07:16;3.23;;;1.97;;
8636;SDS011;4356;49.068;8.658;2023-01-10T15:09:47;2.43;;;2.07;;
8636;SDS011;4356;49.068;8.658;2023-01-10T15:12:21;4.03;;;3.00;;
8636;SDS011;4356;49.068;8.658;2023-01-10T15:14:49;4.23;;;2.30;;
8636;SDS011;4356;49.068;8.658;2023-01-10T15:17:31;4.10;;;3.10;;
8636;SDS011;4356;49.068;8.658;2023-01-10T15:20:00;5.50;;;3.83;;
8636;SDS011;4356;49.068;8.658;2023-01-10T15:22:28;4.83;;;4.43;;
8636;SDS011;4356;49.068;8.658;2023-01-10T15:24:58;4.07;;;3.53;;
8636;SDS011;4356;49.068;8.658;2023-01-10T15:27:25;3.90;;;3.43;;
8636;SDS011;4356;49.068;8.658;2023-01-10T15:29:51;4.97;;;3.80;;
8636;SDS011;4356;49.068;8.658;2023-01-10T15:32:25;3.70;;;3.40;;
8636;SDS011;4356;49.068;8.658;2023-01-10T15:35:03;4.03;;;3.13;;
8636;SDS011;4356;49.068;8.658;2023-01-10T15:37:34;6.20;;;3.50;;
8636;SDS011;4356;49.068;8.658;2023-01-10T15:40:04;7.90;;;4.93;;
8636;SDS011;4356;49.068;8.658;2023-01-10T15:42:31;8.63;;;5.77;;
8636;SDS011;4356;49.068;8.658;2023-01-10T15:45:16;8.67;;;5.67;;
8636;SDS011;4356;49.068;8.658;2023-01-10T15:47:53;6.60;;;4.93;;
8636;SDS011;4356;49.068;8.658;2023-01-10T15:50:28;6.27;;;4.97;;
8636;SDS011;4356;49.068;8.658;2023-01-10T15:53:04;5.60;;;4.40;;
8636;SDS011;4356;49.068;8.658;2023-01-10T15:55:50;4.70;;;3.70;;
8636;SDS011;4356;49.068;8.658;2023-01-10T16:00:52;6.10;;;4.23;;
8636;SDS011;4356;49.068;8.658;2023-01-10T16:03:33;6.73;;;4.47;;
8636;SDS011;4356;49.068;8.658;2023-01-10T16:06:01;7.00;;;4.83;;
8636;SDS011;4356;49.068;8.658;2023-01-10T16:08:32;8.37;;;5.33;;
8636;SDS011;4356;49.068;8.658;2023-01-10T16:11:00;11.67;;;7.90;;
8636;SDS011;4356;49.068;8.658;2023-01-10T16:13:30;12.10;;;6.37;;
8636;SDS011;4356;49.068;8.658;2023-01-10T16:15:58;4.50;;;3.80;;
8636;SDS011;4356;49.068;8.658;2023-01-10T16:18:27;6.63;;;3.10;;
8636;SDS011;4356;49.068;8.658;2023-01-10T16:20:54;3.27;;;2.60;;
8636;SDS011;4356;49.068;8.658;2023-01-10T16:23:22;4.90;;;2.60;;
8636;SDS011;4356;49.068;8.658;2023-01-10T16:25:52;4.90;;;2.53;;
8636;SDS011;4356;49.068;8.658;2023-01-10T16:28:19;3.20;;;2.70;;
8636;SDS011;4356;49.068;8.658;2023-01-10T16:30:46;2.90;;;2.53;;
8636;SDS011;4356;49.068;8.658;2023-01-10T16:33:17;5.77;;;4.00;;
8636;SDS011;4356;49.068;8.658;2023-01-10T16:35:47;8.83;;;5.33;;
8636;SDS011;4356;49.068;8.658;2023-01-10T16:38:14;6.03;;;4.33;;
8636;SDS011;4356;49.068;8.658;2023-01-10T16:40:52;4.97;;;3.03;;
8636;SDS011;4356;49.068;8.658;2023-01-10T16:43:21;4.10;;;3.10;;
8636;SDS011;4356;49.068;8.658;2023-01-10T16:45:47;4.03;;;3.10;;
8636;SDS011;4356;49.068;8.658;2023-01-10T16:48:19;3.17;;;2.87;;
8636;SDS011;4356;49.068;8.658;2023-01-10T16:50:46;4.00;;;3.63;;
8636;SDS011;4356;49.068;8.658;2023-01-10T16:53:13;3.63;;;3.33;;
8636;SDS011;4356;49.068;8.658;2023-01-10T16:55:43;5.23;;;3.83;;
8636;SDS011;4356;49.068;8.658;2023-01-10T16:58:12;5.07;;;4.13;;
8636;SDS011;4356;49.068;8.658;2023-01-10T17:00:40;4.20;;;3.80;;
8636;SDS011;4356;49.068;8.658;2023-01-10T17:03:08;5.77;;;3.83;;
8636;SDS011;4356;49.068;8.658;2023-01-10T17:05:37;5.30;;;3.80;;
8636;SDS011;4356;49.068;8.658;2023-01-10T17:08:04;5.00;;;3.70;;
8636;SDS011;4356;49.068;8.658;2023-01-10T17:10:31;5.00;;;4.50;;
8636;SDS011;4356;49.068;8.658;2023-01-10T17:12:59;6.10;;;3.60;;
8636;SDS011;4356;49.068;8.658;2023-01-10T17:15:27;6.80;;;4.10;;
8636;SDS011;4356;49.068;8.658;2023-01-10T17:17:53;5.50;;;3.80;;
8636;SDS011;4356;49.068;8.658;2023-01-10T17:20:19;4.77;;;4.20;;
8636;SDS011;4356;49.068;8.658;2023-01-10T17:22:44;3.70;;;3.40;;
8636;SDS011;4356;49.068;8.658;2023-01-10T17:25:11;4.03;;;3.50;;
8636;SDS011;4356;49.068;8.658;2023-01-10T17:27:42;4.30;;;3.80;;
8636;SDS011;4356;49.068;8.658;2023-01-10T17:30:09;4.53;;;4.07;;
8636;SDS011;4356;49.068;8.658;2023-01-10T17:32:35;4.10;;;3.70;;
8636;SDS011;4356;49.068;8.658;2023-01-10T17:35:02;6.30;;;4.00;;
8636;SDS011;4356;49.068;8.658;2023-01-10T17:37:28;4.20;;;3.77;;
8636;SDS011;4356;49.068;8.658;2023-01-10T17:39:54;5.97;;;4.37;;
8636;SDS011;4356;49.068;8.658;2023-01-10T17:42:19;5.27;;;4.43;;
8636;SDS011;4356;49.068;8.658;2023-01-10T17:44:47;6.00;;;5.03;;
8636;SDS011;4356;49.068;8.658;2023-01-10T17:47:13;5.67;;;5.10;;
8636;SDS011;4356;49.068;8.658;2023-01-10T17:49:39;7.60;;;5.70;;
8636;SDS011;4356;49.068;8.658;2023-01-10T17:52:06;8.27;;;6.00;;
8636;SDS011;4356;49.068;8.658;2023-01-10T17:54:32;5.80;;;4.97;;
8636;SDS011;4356;49.068;8.658;2023-01-10T17:56:59;7.47;;;5.47;;
8636;SDS011;4356;49.068;8.658;2023-01-10T17:59:25;6.17;;;4.57;;
8636;SDS011;4356;49.068;8.658;2023-01-10T18:01:51;5.77;;;4.33;;
8636;SDS011;4356;49.068;8.658;2023-01-10T18:04:17;10.93;;;4.20;;
8636;SDS011;4356;49.068;8.658;2023-01-10T18:06:43;7.47;;;4.57;;
8636;SDS011;4356;49.068;8.658;2023-01-10T18:09:08;6.17;;;4.10;;
8636;SDS011;4356;49.068;8.658;2023-01-10T18:11:35;3.97;;;3.67;;
8636;SDS011;4356;49.068;8.658;2023-01-10T18:14:01;7.47;;;4.30;;
8636;SDS011;4356;49.068;8.658;2023-01-10T18:16:47;3.93;;;3.60;;
8636;SDS011;4356;49.068;8.658;2023-01-10T18:19:12;5.57;;;3.80;;
8636;SDS011;4356;49.068;8.658;2023-01-10T18:21:38;3.87;;;3.33;;
8636;SDS011;4356;49.068;8.658;2023-01-10T18:24:04;3.50;;;3.20;;
8636;SDS011;4356;49.068;8.658;2023-01-10T18:26:30;3.30;;;3.00;;
8636;SDS011;4356;49.068;8.658;2023-01-10T18:28:55;6.47;;;3.10;;
8636;SDS011;4356;49.068;8.658;2023-01-10T18:31:21;3.23;;;2.73;;
8636;SDS011;4356;49.068;8.658;2023-01-10T18:33:47;4.07;;;3.63;;
8636;SDS011;4356;49.068;8.658;2023-01-10T18:36:13;4.80;;;3.40;;
8636;SDS011;4356;49.068;8.658;2023-01-10T18:38:42;2.60;;;2.40;;
8636;SDS011;4356;49.068;8.658;2023-01-10T18:41:08;4.43;;;3.10;;
8636;SDS011;4356;49.068;8.658;2023-01-10T18:43:34;4.33;;;3.10;;
8636;SDS011;4356;49.068;8.658;2023-01-10T18:46:06;4.67;;;3.67;;
8636;SDS011;4356;49.068;8.658;2023-01-10T18:48:35;6.27;;;4.90;;
8636;SDS011;4356;49.068;8.658;2023-01-10T18:51:02;7.13;;;4.50;;
8636;SDS011;4356;49.068;8.658;2023-01-10T18:53:28;4.43;;;4.03;;
8636;SDS011;4356;49.068;8.658;2023-01-10T18:55:58;6.13;;;4.00;;
8636;SDS011;4356;49.068;8.658;2023-01-10T18:58:26;5.43;;;3.47;;
8636;SDS011;4356;49.068;8.658;2023-01-10T19:00:54;5.30;;;3.57;;
8636;SDS011;4356;49.068;8.658;2023-01-10T19:03:20;3.77;;;3.40;;
8636;SDS011;4356;49.068;8.658;2023-01-10T19:05:45;4.60;;;3.67;;
8636;SDS011;4356;49.068;8.658;2023-01-10T19:08:11;4.27;;;3.57;;
8636;SDS011;4356;49.068;8.658;2023-01-10T19:10:43;3.63;;;3.10;;
8636;SDS011;4356;49.068;8.658;2023-01-10T19:13:09;3.00;;;2.70;;
8636;SDS011;4356;49.068;8.658;2023-01-10T19:15:35;5.13;;;2.73;;